Time;durP1;ratioP1;P1;durP2;ratioP2;P2;SDS_P1;SDS_P2;PMS_P1;PMS_P2;Temp;Humidity;BMP_temperature;BMP_pressure;BME280_temperature;BME280_humidity;BME280_pressure;Samples;Min_cycle;Max_cycle;Signal;HPM_P1;HPM_P2
2023/07/08 00:02:14;;;;;;;12.03;11.73;;;20.60;99.90;;;;;;5068011;28;20912;-67
2023/07/08 00:04:43;;;;;;;11.93;11.63;;;20.60;99.90;;;;;;5055920;28;20580;-68
2023/07/08 00:07:13;;;;;;;11.90;11.60;;;20.50;99.90;;;;;;5078736;28;20470;-68
2023/07/08 00:09:41;;;;;;;12.03;11.73;;;20.50;99.90;;;;;;5069562;28;20470;-68
2023/07/08 00:12:12;;;;;;;11.90;11.60;;;20.50;99.90;;;;;;5070219;28;20554;-65
2023/07/08 00:14:39;;;;;;;12.00;11.70;;;20.50;99.90;;;;;;5074554;28;20491;-67
2023/07/08 00:17:11;;;;;;;12.00;11.70;;;20.60;99.90;;;;;;5068196;28;21186;-66
2023/07/08 00:19:38;;;;;;;12.20;11.90;;;20.60;99.90;;;;;;5069871;28;20546;-67
2023/07/08 00:22:13;;;;;;;12.67;12.37;;;20.50;99.90;;;;;;5065705;28;20466;-67
2023/07/08 00:24:41;;;;;;;11.80;11.50;;;20.60;99.90;;;;;;5068390;28;20450;-67
2023/07/08 00:27:11;;;;;;;11.77;11.47;;;20.60;99.90;;;;;;5071789;28;20462;-66
2023/07/08 00:29:38;;;;;;;11.60;11.30;;;20.70;99.90;;;;;;5072660;28;20891;-68
2023/07/08 00:32:11;;;;;;;11.70;11.40;;;20.80;99.90;;;;;;5068098;28;20985;-68
2023/07/08 00:34:38;;;;;;;11.80;11.50;;;20.90;99.90;;;;;;5070696;28;20486;-68
2023/07/08 00:37:05;;;;;;;12.10;11.80;;;21.00;99.90;;;;;;5074516;28;20980;-68
2023/07/08 00:39:34;;;;;;;12.47;12.17;;;21.00;99.90;;;;;;5067514;28;20459;-69
2023/07/08 00:42:02;;;;;;;11.90;11.60;;;21.00;99.90;;;;;;5074200;28;20466;-67
2023/07/08 00:44:32;;;;;;;11.90;11.60;;;21.10;99.90;;;;;;5077885;28;20461;-67
2023/07/08 00:47:04;;;;;;;12.30;12.00;;;21.00;99.90;;;;;;5071952;28;20467;-67
2023/07/08 00:49:39;;;;;;;12.20;11.90;;;21.10;99.90;;;;;;5067536;28;20467;-66
2023/07/08 00:52:21;;;;;;;12.20;11.90;;;21.10;99.90;;;;;;5068763;28;20837;-67
2023/07/08 00:54:52;;;;;;;12.03;11.73;;;21.20;99.90;;;;;;5067524;28;20489;-67
2023/07/08 00:57:19;;;;;;;12.00;11.70;;;21.20;99.90;;;;;;5075475;28;20455;-66
2023/07/08 00:59:51;;;;;;;12.20;11.90;;;21.10;99.90;;;;;;5067372;28;20628;-67
2023/07/08 01:02:20;;;;;;;12.20;11.90;;;21.10;99.90;;;;;;5074062;28;20484;-67
2023/07/08 01:04:52;;;;;;;12.40;12.10;;;21.10;99.90;;;;;;5072456;28;20554;-67
2023/07/08 01:07:21;;;;;;;12.33;12.03;;;21.20;99.90;;;;;;5074613;28;20463;-67
2023/07/08 01:09:55;;;;;;;12.17;11.87;;;21.20;99.90;;;;;;5071222;28;20554;-67
2023/07/08 01:12:27;;;;;;;11.93;11.63;;;21.20;99.90;;;;;;5074127;28;20469;-67
2023/07/08 01:14:56;;;;;;;11.90;11.60;;;21.20;99.90;;;;;;5079914;28;20485;-67
2023/07/08 01:17:24;;;;;;;12.00;11.70;;;21.20;99.90;;;;;;5074238;28;20462;-67
2023/07/08 01:19:51;;;;;;;11.70;11.40;;;21.10;99.90;;;;;;5075856;28;20466;-67
2023/07/08 01:22:20;;;;;;;11.63;11.33;;;21.10;99.90;;;;;;5074693;28;20582;-67
2023/07/08 01:24:47;;;;;;;11.80;11.50;;;21.00;99.90;;;;;;5070477;28;21054;-68
2023/07/08 01:27:18;;;;;;;11.90;11.60;;;21.00;99.90;;;;;;5080695;28;20557;-67
2023/07/08 01:29:46;;;;;;;11.77;11.47;;;21.00;99.90;;;;;;5072488;28;20481;-68
2023/07/08 01:32:17;;;;;;;12.20;11.90;;;21.10;99.90;;;;;;5075641;28;20466;-68
2023/07/08 01:34:59;;;;;;;11.80;11.50;;;21.10;99.90;;;;;;5079500;28;20526;-68
2023/07/08 01:37:32;;;;;;;12.20;11.90;;;21.20;99.90;;;;;;5080389;28;20813;-68
2023/07/08 01:39:59;;;;;;;12.10;11.80;;;21.20;99.90;;;;;;5072785;28;20465;-68
2023/07/08 01:42:26;;;;;;;12.57;12.27;;;21.30;99.90;;;;;;5081566;28;20511;-68
2023/07/08 01:44:53;;;;;;;12.40;12.10;;;21.30;99.90;;;;;;5073715;28;20531;-68
2023/07/08 01:47:23;;;;;;;12.60;12.30;;;21.30;99.90;;;;;;5080588;28;20548;-68
2023/07/08 01:49:50;;;;;;;12.30;12.00;;;21.30;99.90;;;;;;5078166;28;20973;-68
2023/07/08 01:52:19;;;;;;;12.30;12.00;;;21.40;99.90;;;;;;5081717;28;20486;-68
2023/07/08 01:54:56;;;;;;;12.10;11.80;;;21.40;99.90;;;;;;5071658;28;20547;-68
2023/07/08 01:57:23;;;;;;;12.40;12.10;;;21.50;99.90;;;;;;5071555;28;20545;-68
2023/07/08 01:59:50;;;;;;;12.20;11.90;;;21.40;99.90;;;;;;5070371;28;20472;-68
2023/07/08 02:02:18;;;;;;;12.43;12.13;;;21.50;99.90;;;;;;5079449;28;20472;-66
2023/07/08 02:04:45;;;;;;;12.47;12.17;;;21.50;99.90;;;;;;5070945;28;20469;-68
2023/07/08 02:07:12;;;;;;;12.50;12.20;;;21.60;99.90;;;;;;5084620;28;20737;-68
2023/07/08 02:09:38;;;;;;;12.50;12.20;;;21.50;99.90;;;;;;5070173;28;20508;-68
2023/07/08 02:12:10;;;;;;;12.27;11.97;;;21.50;99.90;;;;;;5077557;28;20470;-68
2023/07/08 02:14:38;;;;;;;12.40;12.10;;;21.50;99.90;;;;;;5067911;28;20544;-68
2023/07/08 02:17:05;;;;;;;12.67;12.30;;;21.40;99.90;;;;;;5076661;28;20517;-67
2023/07/08 02:19:32;;;;;;;12.53;12.23;;;21.30;99.90;;;;;;5057009;28;20459;-68
2023/07/08 02:22:00;;;;;;;12.93;12.53;;;21.30;99.90;;;;;;5069462;28;20466;-68
2023/07/08 02:24:27;;;;;;;12.57;12.27;;;21.20;99.90;;;;;;5077550;28;20525;-68
2023/07/08 02:26:54;;;;;;;12.20;11.90;;;21.20;99.90;;;;;;5070633;28;20459;-67
2023/07/08 02:29:22;;;;;;;12.83;12.43;;;21.20;99.90;;;;;;5068294;28;20466;-67
2023/07/08 02:31:50;;;;;;;12.30;12.00;;;21.10;99.90;;;;;;5072754;28;21013;-68
2023/07/08 02:34:17;;;;;;;12.20;11.90;;;21.10;99.90;;;;;;5069086;28;20888;-68
2023/07/08 02:36:43;;;;;;;12.37;12.07;;;20.90;99.90;;;;;;5076649;28;20491;-67
2023/07/08 02:39:10;;;;;;;12.37;12.07;;;20.90;99.90;;;;;;5068863;28;20960;-68
2023/07/08 02:41:38;;;;;;;12.50;12.20;;;20.80;99.90;;;;;;5082244;28;20453;-68
2023/07/08 02:44:05;;;;;;;12.37;12.07;;;20.70;99.90;;;;;;5075581;28;20466;-68
2023/07/08 02:46:35;;;;;;;12.40;12.10;;;20.50;99.90;;;;;;5067910;28;20965;-67
2023/07/08 02:49:02;;;;;;;12.43;12.13;;;20.40;99.90;;;;;;5073212;28;20494;-68
2023/07/08 02:51:31;;;;;;;12.47;12.17;;;20.40;99.90;;;;;;5081228;28;20486;-67
2023/07/08 02:53:57;;;;;;;12.80;12.40;;;20.30;99.90;;;;;;5069962;28;20509;-68
2023/07/08 02:56:26;;;;;;;12.33;12.03;;;20.20;99.90;;;;;;5068086;28;20479;-67
2023/07/08 02:58:54;;;;;;;12.20;11.90;;;20.20;99.90;;;;;;5078950;28;20474;-67
2023/07/08 03:01:21;;;;;;;12.47;12.17;;;20.20;99.90;;;;;;5076583;28;20470;-67
2023/07/08 03:03:50;;;;;;;12.60;12.30;;;20.10;99.90;;;;;;5074259;28;20535;-68
2023/07/08 03:06:17;;;;;;;12.47;12.17;;;20.10;99.90;;;;;;5070142;28;21017;-68
2023/07/08 03:08:44;;;;;;;12.20;11.90;;;20.00;99.90;;;;;;5069595;28;20499;-68
2023/07/08 03:11:12;;;;;;;12.67;12.30;;;19.90;99.90;;;;;;5079869;28;20549;-68
2023/07/08 03:13:39;;;;;;;12.87;12.47;;;19.90;99.90;;;;;;5069756;28;20470;-67
2023/07/08 03:16:12;;;;;;;12.70;12.30;;;19.90;99.90;;;;;;5066658;28;20503;-67
2023/07/08 03:18:45;;;;;;;12.70;12.30;;;19.90;99.90;;;;;;5080562;28;20490;-67
2023/07/08 03:21:16;;;;;;;12.40;12.10;;;19.90;99.90;;;;;;5067050;28;20478;-67
2023/07/08 03:23:43;;;;;;;12.60;12.30;;;19.90;99.90;;;;;;5075572;28;20470;-68
2023/07/08 03:26:14;;;;;;;12.70;12.40;;;19.90;99.90;;;;;;5068997;28;20463;-67
2023/07/08 03:28:41;;;;;;;12.30;12.00;;;19.90;99.90;;;;;;5070003;28;20486;-68
2023/07/08 03:31:11;;;;;;;12.50;12.20;;;19.90;99.90;;;;;;5072463;28;20473;-67
2023/07/08 03:33:38;;;;;;;12.93;12.53;;;19.80;99.90;;;;;;5083833;28;20473;-68
2023/07/08 03:36:11;;;;;;;12.80;12.40;;;19.90;99.90;;;;;;5071896;28;20485;-68
2023/07/08 03:38:40;;;;;;;13.13;12.73;;;19.90;99.90;;;;;;5067430;28;20458;-67
2023/07/08 03:41:07;;;;;;;12.90;12.50;;;19.80;99.90;;;;;;5077815;28;20455;-67
2023/07/08 03:43:34;;;;;;;12.80;12.40;;;19.80;99.90;;;;;;5066129;28;20463;-67
2023/07/08 03:46:01;;;;;;;12.80;12.40;;;19.80;99.90;;;;;;5069694;28;20461;-67
2023/07/08 03:48:27;;;;;;;12.70;12.30;;;19.70;99.90;;;;;;5080975;28;20470;-68
2023/07/08 03:50:56;;;;;;;12.80;12.40;;;19.70;99.90;;;;;;5077796;28;20479;-68
2023/07/08 03:53:24;;;;;;;12.90;12.50;;;19.60;99.90;;;;;;5069138;28;20858;-67
2023/07/08 03:55:52;;;;;;;13.37;12.97;;;19.50;99.90;;;;;;5064796;28;20556;-67
2023/07/08 03:58:18;;;;;;;12.80;12.40;;;19.50;99.90;;;;;;5077051;28;20466;-66
2023/07/08 04:00:46;;;;;;;12.60;12.30;;;19.60;99.90;;;;;;5069768;28;20488;-68
2023/07/08 04:03:13;;;;;;;12.90;12.50;;;19.60;99.90;;;;;;5069996;28;20463;-67
2023/07/08 04:05:40;;;;;;;12.40;12.10;;;19.50;99.90;;;;;;5073560;28;20542;-66
2023/07/08 04:08:07;;;;;;;12.47;12.17;;;19.50;99.90;;;;;;5068692;28;20459;-66
2023/07/08 04:10:34;;;;;;;12.50;12.20;;;19.50;99.90;;;;;;5069006;28;20482;-66
2023/07/08 04:13:02;;;;;;;12.20;11.90;;;19.50;99.90;;;;;;5067281;28;20470;-65
2023/07/08 04:15:30;;;;;;;12.50;12.20;;;19.40;99.90;;;;;;5073177;28;20483;-66
2023/07/08 04:17:57;;;;;;;12.80;12.40;;;19.50;99.90;;;;;;5068162;28;20450;-66
2023/07/08 04:20:24;;;;;;;12.13;11.83;;;19.70;99.90;;;;;;5078166;28;20462;-66
2023/07/08 04:22:51;;;;;;;12.00;11.70;;;19.80;99.90;;;;;;5068515;28;20847;-66
2023/07/08 04:25:20;;;;;;;12.37;12.07;;;20.00;99.90;;;;;;5068326;28;20467;-67
2023/07/08 04:27:47;;;;;;;12.30;12.00;;;20.10;99.90;;;;;;5066703;28;20466;-67
2023/07/08 04:30:23;;;;;;;12.70;12.40;;;20.30;99.90;;;;;;5079364;28;20969;-67
2023/07/08 04:32:51;;;;;;;12.40;12.10;;;20.50;99.90;;;;;;5077174;28;20508;-66
2023/07/08 04:35:18;;;;;;;12.10;11.80;;;20.70;99.90;;;;;;5067890;28;20459;-67
2023/07/08 04:37:47;;;;;;;12.30;12.00;;;20.90;99.90;;;;;;5071463;28;20466;-66
2023/07/08 04:40:19;;;;;;;12.50;12.20;;;21.00;99.90;;;;;;5070529;28;20455;-66
2023/07/08 04:42:49;;;;;;;12.60;12.30;;;21.00;99.90;;;;;;5075321;28;20550;-66
2023/07/08 04:45:18;;;;;;;12.50;12.20;;;21.00;99.90;;;;;;5067611;28;20542;-66
2023/07/08 04:47:46;;;;;;;12.57;12.27;;;21.00;99.90;;;;;;5073482;28;20519;-67
2023/07/08 04:50:13;;;;;;;12.60;12.30;;;21.00;99.90;;;;;;5069155;28;20487;-67
2023/07/08 04:52:41;;;;;;;12.50;12.20;;;21.10;99.90;;;;;;5067732;28;20487;-66
2023/07/08 04:55:10;;;;;;;12.63;12.33;;;21.10;99.90;;;;;;5065740;28;20480;-68
2023/07/08 04:57:37;;;;;;;13.00;12.60;;;21.00;99.90;;;;;;5071182;28;20493;-68
2023/07/08 05:00:07;;;;;;;12.60;12.30;;;21.00;99.90;;;;;;5059676;28;20454;-67
2023/07/08 05:02:37;;;;;;;12.50;12.20;;;20.90;99.90;;;;;;5067055;28;20471;-68
2023/07/08 05:05:05;;;;;;;12.60;12.30;;;20.90;99.90;;;;;;5066747;28;20542;-68
2023/07/08 05:07:32;;;;;;;12.50;12.20;;;20.90;99.90;;;;;;5075450;28;20512;-67
2023/07/08 05:09:59;;;;;;;12.60;12.30;;;20.90;99.90;;;;;;5067879;28;20474;-68
2023/07/08 05:12:27;;;;;;;13.07;12.67;;;20.90;99.90;;;;;;5068439;28;20510;-68
2023/07/08 05:14:54;;;;;;;12.80;12.50;;;20.90;99.90;;;;;;5076107;28;20925;-67
2023/07/08 05:17:21;;;;;;;12.23;11.93;;;21.00;99.90;;;;;;5066456;28;20482;-68
2023/07/08 05:19:51;;;;;;;12.33;12.03;;;21.10;99.90;;;;;;5074100;28;20466;-69
2023/07/08 05:22:24;;;;;;;12.20;11.90;;;21.30;99.90;;;;;;5068459;28;20454;-67
2023/07/08 05:24:55;;;;;;;12.40;12.10;;;21.40;99.90;;;;;;5066457;28;20455;-68
2023/07/08 05:27:22;;;;;;;12.80;12.50;;;21.50;99.90;;;;;;5065715;28;20490;-67
2023/07/08 05:29:49;;;;;;;12.27;11.97;;;21.60;99.90;;;;;;5080904;28;21026;-67
2023/07/08 05:32:17;;;;;;;13.20;12.80;;;21.70;99.90;;;;;;5064226;28;20516;-68
2023/07/08 05:34:44;;;;;;;13.27;12.87;;;21.80;99.90;;;;;;5063481;28;20462;-67
2023/07/08 05:37:13;;;;;;;13.20;12.80;;;21.90;99.90;;;;;;5076307;28;20911;-68
2023/07/08 05:39:40;;;;;;;13.83;13.43;;;22.10;99.90;;;;;;5076018;28;20461;-69
2023/07/08 05:42:07;;;;;;;13.37;12.97;;;22.20;99.90;;;;;;5070657;28;20467;-66
2023/07/08 05:44:35;;;;;;;13.47;13.07;;;22.30;99.90;;;;;;5069605;28;20459;-67
2023/07/08 05:47:02;;;;;;;13.40;13.00;;;22.40;99.90;;;;;;5058329;28;20459;-66
2023/07/08 05:49:29;;;;;;;12.80;12.47;;;22.70;99.90;;;;;;5075342;28;20454;-66
2023/07/08 05:51:57;;;;;;;12.90;12.60;;;22.80;99.90;;;;;;5068622;28;20487;-68
2023/07/08 05:54:26;;;;;;;12.73;12.43;;;22.90;99.90;;;;;;5080527;28;20463;-68
2023/07/08 05:56:53;;;;;;;12.73;12.43;;;23.00;99.90;;;;;;5064537;28;20851;-67
2023/07/08 05:59:19;;;;;;;12.83;12.50;;;23.10;99.90;;;;;;5070549;28;20840;-68
2023/07/08 06:01:46;;;;;;;12.50;12.20;;;23.30;99.90;;;;;;5073286;28;20460;-68
2023/07/08 06:04:14;;;;;;;12.40;12.10;;;23.40;99.90;;;;;;5070738;28;20457;-68
2023/07/08 06:06:41;;;;;;;12.50;12.20;;;23.60;99.90;;;;;;5074388;28;20552;-67
2023/07/08 06:09:09;;;;;;;13.00;12.60;;;23.90;99.90;;;;;;5073204;28;20466;-67
2023/07/08 06:11:37;;;;;;;13.10;12.70;;;24.20;99.90;;;;;;5072331;28;20458;-67
2023/07/08 06:14:04;;;;;;;12.60;12.30;;;24.40;99.90;;;;;;5071911;28;20461;-66
2023/07/08 06:16:31;;;;;;;12.80;12.50;;;24.60;99.90;;;;;;5068802;28;20494;-67
2023/07/08 06:18:58;;;;;;;13.40;13.00;;;24.80;99.90;;;;;;5060487;28;20467;-68
2023/07/08 06:21:26;;;;;;;13.10;12.70;;;24.90;99.90;;;;;;5075542;28;20463;-67
2023/07/08 06:23:53;;;;;;;13.40;13.00;;;25.10;99.90;;;;;;5065167;28;20505;-67
2023/07/08 06:26:19;;;;;;;13.10;12.70;;;25.10;99.90;;;;;;5071383;28;20462;-67
2023/07/08 06:28:47;;;;;;;12.80;12.50;;;25.20;99.90;;;;;;5079624;28;20465;-66
2023/07/08 06:31:14;;;;;;;13.20;12.80;;;25.40;99.90;;;;;;5067789;28;20912;-66
2023/07/08 06:33:42;;;;;;;12.83;12.50;;;25.40;99.90;;;;;;5058495;28;20470;-67
2023/07/08 06:36:10;;;;;;;12.80;12.50;;;25.40;99.90;;;;;;5061648;28;20471;-67
2023/07/08 06:38:37;;;;;;;13.27;12.87;;;25.60;99.90;;;;;;5069510;28;20463;-66
2023/07/08 06:41:03;;;;;;;12.80;12.50;;;25.60;99.90;;;;;;5070325;28;20463;-67
2023/07/08 06:43:30;;;;;;;12.80;12.50;;;25.70;99.90;;;;;;5068834;28;20544;-66
2023/07/08 06:45:58;;;;;;;12.90;12.50;;;25.80;99.90;;;;;;5059025;28;20455;-67
2023/07/08 06:48:26;;;;;;;13.17;12.77;;;25.80;99.90;;;;;;5067870;28;20564;-67
2023/07/08 06:50:53;;;;;;;13.37;12.97;;;25.80;99.90;;;;;;5065987;28;20474;-66
2023/07/08 06:53:21;;;;;;;12.83;12.50;;;25.80;99.90;;;;;;5074345;28;20493;-66
2023/07/08 06:55:48;;;;;;;13.00;12.60;;;26.00;99.90;;;;;;5073188;28;20839;-66
2023/07/08 06:58:16;;;;;;;12.90;12.60;;;26.00;99.90;;;;;;5070287;28;20544;-68
2023/07/08 07:00:43;;;;;;;12.93;12.60;;;26.10;99.90;;;;;;5069611;28;20554;-67
2023/07/08 07:03:13;;;;;;;13.07;12.67;;;26.30;99.90;;;;;;5068083;28;20558;-66
2023/07/08 07:05:41;;;;;;;12.73;12.43;;;26.70;99.90;;;;;;5052819;28;20494;-67
2023/07/08 07:08:08;;;;;;;13.33;12.93;;;27.00;99.90;;;;;;5076950;28;20448;-67
2023/07/08 07:10:35;;;;;;;13.30;12.90;;;27.20;99.50;;;;;;5066232;28;20463;-66
2023/07/08 07:13:02;;;;;;;12.70;12.40;;;27.20;99.70;;;;;;5061321;28;20770;-67
2023/07/08 07:15:31;;;;;;;13.40;13.00;;;27.20;99.00;;;;;;5052921;28;20487;-67
2023/07/08 07:17:59;;;;;;;13.10;12.70;;;27.40;98.30;;;;;;5060101;28;20598;-66
2023/07/08 07:20:29;;;;;;;13.20;12.80;;;27.70;98.30;;;;;;5056384;28;20462;-67
2023/07/08 07:22:55;;;;;;;13.37;12.97;;;27.90;97.30;;;;;;5060057;28;20477;-67
2023/07/08 07:25:22;;;;;;;12.90;12.60;;;28.10;96.90;;;;;;5056129;28;20462;-67
2023/07/08 07:27:49;;;;;;;13.37;12.97;;;28.10;96.20;;;;;;5058493;28;20926;-67
2023/07/08 07:30:18;;;;;;;13.10;12.70;;;27.90;95.80;;;;;;5063746;28;20470;-67
2023/07/08 07:32:46;;;;;;;13.20;12.80;;;27.90;96.40;;;;;;5063093;28;20470;-67
2023/07/08 07:35:16;;;;;;;13.60;13.20;;;27.80;95.90;;;;;;5061226;28;20839;-66
2023/07/08 07:37:44;;;;;;;12.93;12.63;;;28.10;95.20;;;;;;5062634;28;20497;-67
2023/07/08 07:40:14;;;;;;;13.10;12.70;;;28.30;95.70;;;;;;5065793;28;20536;-66
2023/07/08 07:42:42;;;;;;;12.90;12.60;;;28.50;95.20;;;;;;5066423;28;20454;-67
2023/07/08 07:45:10;;;;;;;12.80;12.50;;;28.60;95.20;;;;;;5065795;28;20476;-66
2023/07/08 07:47:37;;;;;;;13.13;12.73;;;28.70;94.70;;;;;;5065541;28;20466;-67
2023/07/08 07:50:05;;;;;;;12.70;12.40;;;28.70;94.80;;;;;;5061760;28;20512;-66
2023/07/08 07:52:33;;;;;;;13.30;12.90;;;28.70;94.80;;;;;;5059480;28;20558;-68
2023/07/08 07:55:03;;;;;;;13.00;12.60;;;28.80;94.90;;;;;;5064786;28;20459;-66
2023/07/08 07:57:31;;;;;;;13.67;13.27;;;28.90;94.70;;;;;;5054381;28;21044;-66
2023/07/08 07:59:57;;;;;;;13.07;12.67;;;28.90;94.30;;;;;;5059302;28;20520;-67
2023/07/08 08:02:25;;;;;;;13.47;13.07;;;28.90;94.90;;;;;;5054146;28;20898;-67
2023/07/08 08:04:52;;;;;;;13.13;12.73;;;28.90;94.40;;;;;;5053093;28;20447;-67
2023/07/08 08:07:19;;;;;;;13.00;12.60;;;28.70;95.00;;;;;;5061280;28;20880;-67
2023/07/08 08:09:46;;;;;;;13.37;12.97;;;29.10;95.00;;;;;;5064911;28;20463;-66
2023/07/08 08:12:14;;;;;;;13.73;13.33;;;29.30;93.60;;;;;;5060891;28;20993;-67
2023/07/08 08:14:42;;;;;;;13.97;13.57;;;29.70;93.00;;;;;;5063215;28;20462;-67
2023/07/08 08:17:08;;;;;;;13.80;13.40;;;30.20;92.10;;;;;;5057213;28;20486;-67
2023/07/08 08:19:35;;;;;;;13.77;13.37;;;30.70;91.30;;;;;;5072293;28;20789;-67
2023/07/08 08:22:02;;;;;;;13.80;13.40;;;31.00;90.90;;;;;;5060912;28;20494;-67
2023/07/08 08:24:29;;;;;;;13.83;13.43;;;31.50;90.20;;;;;;5058865;28;20537;-66
2023/07/08 08:26:57;;;;;;;13.60;13.20;;;32.20;88.10;;;;;;5057605;28;20463;-67
2023/07/08 08:29:26;;;;;;;13.47;13.07;;;32.60;87.10;;;;;;5065043;28;20467;-66
2023/07/08 08:31:54;;;;;;;13.97;13.57;;;32.90;84.70;;;;;;5057140;28;20466;-66
2023/07/08 08:34:21;;;;;;;13.83;13.43;;;33.10;84.60;;;;;;5073029;28;20517;-67
2023/07/08 08:36:48;;;;;;;14.10;13.70;;;33.60;84.50;;;;;;5064151;28;20455;-67
2023/07/08 08:39:15;;;;;;;13.87;13.47;;;34.20;80.70;;;;;;5060521;28;20962;-67
2023/07/08 08:41:44;;;;;;;13.83;13.43;;;34.00;79.50;;;;;;5055323;28;20463;-67
2023/07/08 08:44:17;;;;;;;14.73;14.23;;;34.20;78.70;;;;;;5061298;28;20471;-67
2023/07/08 08:46:52;;;;;;;14.90;14.40;;;34.70;77.90;;;;;;5065511;28;21007;-67
2023/07/08 08:49:24;;;;;;;14.73;14.23;;;34.60;75.30;;;;;;5065142;28;20458;-67
2023/07/08 08:51:52;;;;;;;14.80;14.30;;;34.90;73.80;;;;;;5067251;28;20861;-67
2023/07/08 08:54:20;;;;;;;14.20;13.80;;;34.70;72.50;;;;;;5073752;28;20454;-67
2023/07/08 08:57:05;;;;;;;14.60;14.10;;;34.70;72.60;;;;;;5063849;28;20487;-67
2023/07/08 08:59:43;;;;;;;14.70;14.20;;;35.50;71.60;;;;;;5064435;28;20459;-66
2023/07/08 09:02:28;;;;;;;14.40;13.90;;;36.00;70.20;;;;;;5067410;28;20465;-67
2023/07/08 09:04:56;;;;;;;14.50;14.00;;;36.30;68.60;;;;;;5070560;28;20490;-67
2023/07/08 09:07:23;;;;;;;14.70;14.20;;;36.20;66.80;;;;;;5078408;28;20477;-68
2023/07/08 09:09:59;;;;;;;13.73;13.33;;;36.40;67.80;;;;;;5065962;28;20455;-67
2023/07/08 09:12:28;;;;;;;14.60;14.10;;;36.20;64.80;;;;;;5064005;28;20462;-67
2023/07/08 09:14:56;;;;;;;14.17;13.77;;;36.40;63.30;;;;;;5074174;28;20465;-67
2023/07/08 09:17:31;;;;;;;14.00;13.60;;;36.50;64.30;;;;;;5070486;28;20581;-67
2023/07/08 09:20:13;;;;;;;14.50;14.00;;;36.90;64.60;;;;;;5078009;28;20550;-67
2023/07/08 09:22:44;;;;;;;14.50;14.00;;;36.90;60.70;;;;;;5071176;28;20957;-67
2023/07/08 09:25:24;;;;;;;14.40;13.90;;;36.40;62.60;;;;;;5076828;28;20983;-67
2023/07/08 09:27:52;;;;;;;13.80;13.40;;;37.10;62.10;;;;;;5071350;28;20466;-68
2023/07/08 09:30:23;;;;;;;14.30;13.80;;;37.20;59.10;;;;;;5073214;28;20870;-67
2023/07/08 09:32:52;;;;;;;14.60;14.10;;;36.90;59.20;;;;;;5080320;28;20511;-67
2023/07/08 09:35:22;;;;;;;14.50;14.00;;;37.60;60.70;;;;;;5076966;28;20450;-67
2023/07/08 09:37:51;;;;;;;14.03;13.63;;;37.40;58.50;;;;;;5074310;28;20951;-67
2023/07/08 09:40:20;;;;;;;14.60;14.10;;;37.70;57.30;;;;;;5073026;28;20565;-67
2023/07/08 09:42:53;;;;;;;14.20;13.80;;;37.60;57.20;;;;;;5067448;28;21010;-67
2023/07/08 09:45:23;;;;;;;13.80;13.40;;;37.80;57.30;;;;;;5069953;28;20496;-68
2023/07/08 09:47:56;;;;;;;14.10;13.70;;;38.40;56.00;;;;;;5047579;28;20849;-67
2023/07/08 09:50:25;;;;;;;14.20;13.80;;;38.60;55.90;;;;;;5056530;28;20462;-68
2023/07/08 09:52:54;;;;;;;13.83;13.43;;;39.00;55.20;;;;;;5053425;28;20490;-67
2023/07/08 09:55:22;;;;;;;14.10;13.70;;;39.30;54.50;;;;;;5058237;28;20548;-68
2023/07/08 09:57:51;;;;;;;13.73;13.33;;;38.70;54.80;;;;;;5059451;28;20455;-68
2023/07/08 10:00:27;;;;;;;14.03;13.63;;;38.80;54.70;;;;;;5058735;28;20493;-68
2023/07/08 10:02:56;;;;;;;13.80;13.40;;;39.10;54.30;;;;;;5058797;28;20843;-67
2023/07/08 10:05:27;;;;;;;13.83;13.43;;;39.60;54.30;;;;;;5055713;28;20462;-68
2023/07/08 10:07:57;;;;;;;13.70;13.30;;;39.90;53.30;;;;;;5059030;28;20544;-69
2023/07/08 10:10:29;;;;;;;13.60;13.20;;;40.10;53.20;;;;;;5060208;28;20876;-67
2023/07/08 10:13:00;;;;;;;13.97;13.57;;;40.70;52.40;;;;;;5059913;28;20705;-68
2023/07/08 10:15:32;;;;;;;13.90;13.50;;;41.00;52.00;;;;;;5060789;28;20486;-68
2023/07/08 10:18:00;;;;;;;13.77;13.37;;;40.20;51.30;;;;;;5060806;28;20474;-69
2023/07/08 10:20:36;;;;;;;14.03;13.63;;;40.20;51.40;;;;;;5058860;28;20557;-68
2023/07/08 10:23:18;;;;;;;13.70;13.30;;;39.90;51.50;;;;;;5047393;28;20705;-68
2023/07/08 10:25:53;;;;;;;12.80;12.50;;;40.20;50.50;;;;;;5054614;28;20459;-69
2023/07/08 10:28:31;;;;;;;13.30;12.90;;;40.20;50.20;;;;;;5057195;28;20486;-68
2023/07/08 10:31:08;;;;;;;12.60;12.30;;;40.30;51.40;;;;;;5057010;28;20656;-69
2023/07/08 10:33:56;;;;;;;12.67;12.37;;;40.80;51.00;;;;;;5054353;28;20504;-69
2023/07/08 10:36:30;;;;;;;13.07;12.67;;;40.40;50.80;;;;;;5056527;28;20455;-68
2023/07/08 10:39:23;;;;;;;13.03;12.63;;;41.40;50.30;;;;;;5056472;28;20470;-68
2023/07/08 10:42:02;;;;;;;12.83;12.53;;;41.70;48.90;;;;;;5061563;28;20529;-69
2023/07/08 10:44:36;;;;;;;12.60;12.30;;;40.90;48.90;;;;;;5059113;28;20886;-69
2023/07/08 10:47:28;;;;;;;12.17;11.87;;;41.30;49.20;;;;;;5052765;28;20509;-69
2023/07/08 10:50:09;;;;;;;12.80;12.50;;;41.50;48.60;;;;;;5056032;28;20472;-68
2023/07/08 10:52:50;;;;;;;12.20;11.90;;;41.70;48.80;;;;;;5059728;28;20482;-69
2023/07/08 10:55:31;;;;;;;13.00;12.70;;;42.40;48.50;;;;;;5055344;28;20563;-68
2023/07/08 10:58:22;;;;;;;12.93;12.60;;;42.00;47.80;;;;;;5056817;28;20474;-68
2023/07/08 11:00:58;;;;;;;12.53;12.23;;;41.60;47.40;;;;;;5055962;28;20462;-69
2023/07/08 11:03:48;;;;;;;12.13;11.83;;;41.70;47.20;;;;;;5058261;28;20521;-69
2023/07/08 11:06:21;;;;;;;11.90;11.60;;;42.20;46.60;;;;;;5054879;28;20922;-69
2023/07/08 11:08:54;;;;;;;12.13;11.83;;;42.20;46.70;;;;;;5055077;28;20499;-68
2023/07/08 11:11:33;;;;;;;12.10;11.80;;;42.20;46.50;;;;;;5058737;28;20974;-69
2023/07/08 11:14:07;;;;;;;12.10;11.80;;;41.90;46.30;;;;;;5063576;28;20811;-67
2023/07/08 11:16:37;;;;;;;11.77;11.47;;;42.20;45.90;;;;;;5058365;28;20482;-67
2023/07/08 11:19:09;;;;;;;12.10;11.80;;;42.40;45.50;;;;;;5065474;28;20802;-68
2023/07/08 11:21:41;;;;;;;12.07;11.77;;;42.60;45.70;;;;;;5066892;28;20930;-67
2023/07/08 11:24:15;;;;;;;11.97;11.67;;;42.50;45.20;;;;;;5062465;28;20482;-68
2023/07/08 11:26:45;;;;;;;12.60;12.30;;;43.00;45.30;;;;;;5053542;28;20470;-67
2023/07/08 11:29:18;;;;;;;12.13;11.83;;;43.30;44.80;;;;;;5055657;28;20490;-68
2023/07/08 11:31:47;;;;;;;12.13;11.83;;;43.60;45.20;;;;;;5056081;28;20463;-68
2023/07/08 11:34:17;;;;;;;12.30;12.00;;;44.50;44.50;;;;;;5056393;28;20491;-68
2023/07/08 11:36:48;;;;;;;12.07;11.77;;;44.70;44.10;;;;;;5053822;28;20496;-68
2023/07/08 11:39:34;;;;;;;11.90;11.60;;;44.40;43.90;;;;;;5054626;28;20477;-68
2023/07/08 11:42:18;;;;;;;11.97;11.67;;;45.10;43.60;;;;;;5049961;28;20625;-68
2023/07/08 11:44:51;;;;;;;11.80;11.50;;;45.20;42.90;;;;;;5055700;28;20467;-68
2023/07/08 11:47:22;;;;;;;11.33;11.03;;;45.00;41.40;;;;;;5049739;28;20478;-68
2023/07/08 11:49:51;;;;;;;12.17;11.87;;;44.20;41.60;;;;;;5052190;28;20502;-68
2023/07/08 11:52:23;;;;;;;12.37;12.07;;;44.40;42.80;;;;;;5050442;28;20479;-68
2023/07/08 11:54:57;;;;;;;11.67;11.37;;;44.80;42.30;;;;;;5047666;28;20476;-67
2023/07/08 11:57:31;;;;;;;11.80;11.50;;;45.50;42.00;;;;;;5046924;28;20460;-67
2023/07/08 12:00:15;;;;;;;12.10;11.80;;;45.60;41.80;;;;;;5049510;28;20483;-67
2023/07/08 12:02:54;;;;;;;12.20;11.90;;;45.40;42.00;;;;;;5049310;28;20960;-68
2023/07/08 12:05:31;;;;;;;11.50;11.20;;;45.90;41.40;;;;;;5051345;28;20933;-68
2023/07/08 12:08:02;;;;;;;11.30;11.00;;;45.30;40.60;;;;;;5049156;28;20534;-68
2023/07/08 12:10:34;;;;;;;11.57;11.27;;;44.50;40.80;;;;;;5054565;28;20459;-69
2023/07/08 12:13:02;;;;;;;12.10;11.80;;;44.80;41.30;;;;;;5053379;28;20463;-68
2023/07/08 12:15:30;;;;;;;11.73;11.43;;;45.80;40.70;;;;;;5048751;28;20495;-69
2023/07/08 12:18:00;;;;;;;12.10;11.80;;;46.50;40.80;;;;;;5060156;28;21069;-68
2023/07/08 12:20:32;;;;;;;12.07;11.77;;;45.80;40.60;;;;;;5055232;28;20974;-69
2023/07/08 12:23:00;;;;;;;12.40;12.10;;;46.30;39.90;;;;;;5056519;28;20470;-68
2023/07/08 12:25:34;;;;;;;12.07;11.77;;;46.30;40.50;;;;;;5048178;28;21034;-68
2023/07/08 12:28:01;;;;;;;12.00;11.70;;;46.20;41.20;;;;;;5055734;28;20459;-68
2023/07/08 12:30:31;;;;;;;11.97;11.67;;;46.20;40.50;;;;;;5049474;28;21297;-69
2023/07/08 12:32:59;;;;;;;11.70;11.40;;;46.00;40.80;;;;;;5046839;28;20548;-68
2023/07/08 12:35:28;;;;;;;12.00;11.70;;;45.20;40.60;;;;;;5048151;28;20465;-68
2023/07/08 12:37:58;;;;;;;11.73;11.43;;;44.10;41.30;;;;;;5047331;28;20462;-68
2023/07/08 12:40:28;;;;;;;11.70;11.40;;;44.50;41.50;;;;;;5051343;28;20577;-68
2023/07/08 12:42:56;;;;;;;11.80;11.50;;;44.80;41.10;;;;;;5052718;28;20472;-68